sensor_id;sensor_type;location;lat;lon;timestamp;P1;durP1;ratioP1;P2;durP2;ratioP2
2187;SDS011;1100;52.014;8.540;2024-03-22T00:01:50;10.23;;;5.05;;
2187;SDS011;1100;52.014;8.540;2024-03-22T00:04:16;10.27;;;5.03;;
2187;SDS011;1100;52.014;8.540;2024-03-22T00:06:42;9.57;;;4.93;;
2187;SDS011;1100;52.014;8.540;2024-03-22T00:09:08;11.90;;;4.93;;
2187;SDS011;1100;52.014;8.540;2024-03-22T00:11:34;12.85;;;5.53;;
2187;SDS011;1100;52.014;8.540;2024-03-22T00:13:59;13.47;;;5.63;;
2187;SDS011;1100;52.014;8.540;2024-03-22T00:16:25;13.10;;;6.20;;
2187;SDS011;1100;52.014;8.540;2024-03-22T00:18:51;12.90;;;4.57;;
2187;SDS011;1100;52.014;8.540;2024-03-22T00:21:16;12.77;;;6.00;;
2187;SDS011;1100;52.014;8.540;2024-03-22T00:23:42;9.67;;;4.27;;
2187;SDS011;1100;52.014;8.540;2024-03-22T00:26:08;12.27;;;5.43;;
2187;SDS011;1100;52.014;8.540;2024-03-22T00:28:34;10.70;;;4.80;;
2187;SDS011;1100;52.014;8.540;2024-03-22T00:30:59;10.88;;;5.07;;
2187;SDS011;1100;52.014;8.540;2024-03-22T00:33:24;13.00;;;4.67;;
2187;SDS011;1100;52.014;8.540;2024-03-22T00:35:50;13.60;;;5.63;;
2187;SDS011;1100;52.014;8.540;2024-03-22T00:38:15;14.63;;;6.40;;
2187;SDS011;1100;52.014;8.540;2024-03-22T00:40:40;10.87;;;5.40;;
2187;SDS011;1100;52.014;8.540;2024-03-22T00:43:07;10.10;;;5.40;;
2187;SDS011;1100;52.014;8.540;2024-03-22T00:45:32;11.80;;;5.27;;
2187;SDS011;1100;52.014;8.540;2024-03-22T00:47:57;10.70;;;4.67;;
2187;SDS011;1100;52.014;8.540;2024-03-22T00:50:23;11.10;;;5.33;;
2187;SDS011;1100;52.014;8.540;2024-03-22T00:52:50;16.40;;;6.77;;
2187;SDS011;1100;52.014;8.540;2024-03-22T00:55:16;11.77;;;5.70;;
2187;SDS011;1100;52.014;8.540;2024-03-22T00:57:41;12.57;;;6.17;;
2187;SDS011;1100;52.014;8.540;2024-03-22T01:00:07;15.55;;;6.18;;
2187;SDS011;1100;52.014;8.540;2024-03-22T01:02:32;15.07;;;5.83;;
2187;SDS011;1100;52.014;8.540;2024-03-22T01:04:58;13.23;;;5.37;;
2187;SDS011;1100;52.014;8.540;2024-03-22T01:07:23;15.23;;;6.07;;
2187;SDS011;1100;52.014;8.540;2024-03-22T01:09:48;19.40;;;7.00;;
2187;SDS011;1100;52.014;8.540;2024-03-22T01:12:14;10.05;;;5.18;;
2187;SDS011;1100;52.014;8.540;2024-03-22T01:14:48;13.67;;;6.13;;
2187;SDS011;1100;52.014;8.540;2024-03-22T01:17:17;12.70;;;6.07;;
2187;SDS011;1100;52.014;8.540;2024-03-22T01:19:43;10.60;;;5.00;;
2187;SDS011;1100;52.014;8.540;2024-03-22T01:22:08;11.50;;;6.13;;
2187;SDS011;1100;52.014;8.540;2024-03-22T01:24:34;10.73;;;5.37;;
2187;SDS011;1100;52.014;8.540;2024-03-22T01:26:59;14.77;;;4.90;;
2187;SDS011;1100;52.014;8.540;2024-03-22T01:29:27;14.35;;;6.00;;
2187;SDS011;1100;52.014;8.540;2024-03-22T01:31:56;19.52;;;7.10;;
2187;SDS011;1100;52.014;8.540;2024-03-22T01:34:27;13.37;;;6.20;;
2187;SDS011;1100;52.014;8.540;2024-03-22T01:36:52;14.63;;;5.70;;
2187;SDS011;1100;52.014;8.540;2024-03-22T01:39:18;18.33;;;7.27;;
2187;SDS011;1100;52.014;8.540;2024-03-22T01:41:46;16.87;;;6.73;;
2187;SDS011;1100;52.014;8.540;2024-03-22T01:44:15;12.82;;;6.90;;
2187;SDS011;1100;52.014;8.540;2024-03-22T01:46:41;13.35;;;6.65;;
2187;SDS011;1100;52.014;8.540;2024-03-22T01:49:07;9.97;;;4.60;;
2187;SDS011;1100;52.014;8.540;2024-03-22T01:51:34;13.15;;;5.68;;
2187;SDS011;1100;52.014;8.540;2024-03-22T01:54:01;15.57;;;6.00;;
2187;SDS011;1100;52.014;8.540;2024-03-22T01:56:28;13.23;;;6.10;;
2187;SDS011;1100;52.014;8.540;2024-03-22T01:58:54;15.63;;;7.00;;
2187;SDS011;1100;52.014;8.540;2024-03-22T02:01:21;13.02;;;6.18;;
2187;SDS011;1100;52.014;8.540;2024-03-22T02:03:46;13.23;;;6.30;;
2187;SDS011;1100;52.014;8.540;2024-03-22T02:06:11;13.00;;;5.67;;
2187;SDS011;1100;52.014;8.540;2024-03-22T02:08:37;10.90;;;5.77;;
2187;SDS011;1100;52.014;8.540;2024-03-22T02:11:03;13.83;;;5.07;;
2187;SDS011;1100;52.014;8.540;2024-03-22T02:13:28;12.77;;;5.53;;
2187;SDS011;1100;52.014;8.540;2024-03-22T02:15:54;13.90;;;4.80;;
2187;SDS011;1100;52.014;8.540;2024-03-22T02:18:19;12.93;;;5.70;;
2187;SDS011;1100;52.014;8.540;2024-03-22T02:20:44;14.37;;;5.77;;
2187;SDS011;1100;52.014;8.540;2024-03-22T02:23:09;12.63;;;6.13;;
2187;SDS011;1100;52.014;8.540;2024-03-22T02:25:35;15.37;;;4.90;;
2187;SDS011;1100;52.014;8.540;2024-03-22T02:28:00;12.83;;;6.57;;
2187;SDS011;1100;52.014;8.540;2024-03-22T02:30:25;14.02;;;5.82;;
2187;SDS011;1100;52.014;8.540;2024-03-22T02:32:51;13.30;;;5.90;;
2187;SDS011;1100;52.014;8.540;2024-03-22T02:35:16;14.33;;;5.37;;
2187;SDS011;1100;52.014;8.540;2024-03-22T02:37:41;21.10;;;6.87;;
2187;SDS011;1100;52.014;8.540;2024-03-22T02:40:07;15.70;;;5.20;;
2187;SDS011;1100;52.014;8.540;2024-03-22T02:42:33;12.70;;;5.18;;
2187;SDS011;1100;52.014;8.540;2024-03-22T02:44:58;12.07;;;4.63;;
2187;SDS011;1100;52.014;8.540;2024-03-22T02:47:23;12.90;;;7.53;;
2187;SDS011;1100;52.014;8.540;2024-03-22T02:49:48;13.43;;;5.67;;
2187;SDS011;1100;52.014;8.540;2024-03-22T02:52:14;15.00;;;5.43;;
2187;SDS011;1100;52.014;8.540;2024-03-22T02:54:39;13.23;;;5.37;;
2187;SDS011;1100;52.014;8.540;2024-03-22T02:57:04;9.50;;;4.53;;
2187;SDS011;1100;52.014;8.540;2024-03-22T02:59:30;12.07;;;4.20;;
2187;SDS011;1100;52.014;8.540;2024-03-22T03:01:55;13.77;;;5.27;;
2187;SDS011;1100;52.014;8.540;2024-03-22T03:04:20;11.10;;;5.63;;
2187;SDS011;1100;52.014;8.540;2024-03-22T03:06:46;10.93;;;4.27;;
2187;SDS011;1100;52.014;8.540;2024-03-22T03:09:11;11.67;;;4.93;;
2187;SDS011;1100;52.014;8.540;2024-03-22T03:11:40;15.32;;;5.30;;
2187;SDS011;1100;52.014;8.540;2024-03-22T03:14:06;14.65;;;4.88;;
2187;SDS011;1100;52.014;8.540;2024-03-22T03:16:31;9.90;;;4.53;;
2187;SDS011;1100;52.014;8.540;2024-03-22T03:18:57;13.40;;;5.33;;
2187;SDS011;1100;52.014;8.540;2024-03-22T03:21:22;18.37;;;6.37;;
2187;SDS011;1100;52.014;8.540;2024-03-22T03:23:47;15.73;;;6.43;;
2187;SDS011;1100;52.014;8.540;2024-03-22T03:26:13;15.43;;;5.93;;
2187;SDS011;1100;52.014;8.540;2024-03-22T03:28:38;13.37;;;5.00;;
2187;SDS011;1100;52.014;8.540;2024-03-22T03:31:03;12.27;;;6.00;;
2187;SDS011;1100;52.014;8.540;2024-03-22T03:33:29;12.87;;;5.80;;
2187;SDS011;1100;52.014;8.540;2024-03-22T03:35:54;12.10;;;5.47;;
2187;SDS011;1100;52.014;8.540;2024-03-22T03:38:20;12.87;;;5.80;;
2187;SDS011;1100;52.014;8.540;2024-03-22T03:40:46;14.40;;;4.70;;
2187;SDS011;1100;52.014;8.540;2024-03-22T03:43:11;13.68;;;5.43;;
2187;SDS011;1100;52.014;8.540;2024-03-22T03:45:37;13.03;;;5.07;;
2187;SDS011;1100;52.014;8.540;2024-03-22T03:48:02;20.37;;;6.30;;
2187;SDS011;1100;52.014;8.540;2024-03-22T03:50:28;15.23;;;4.73;;
2187;SDS011;1100;52.014;8.540;2024-03-22T03:52:53;15.55;;;6.28;;
2187;SDS011;1100;52.014;8.540;2024-03-22T03:55:19;13.20;;;5.33;;
2187;SDS011;1100;52.014;8.540;2024-03-22T03:57:44;13.10;;;5.23;;
2187;SDS011;1100;52.014;8.540;2024-03-22T04:00:09;13.10;;;5.93;;
2187;SDS011;1100;52.014;8.540;2024-03-22T04:02:35;16.27;;;5.93;;
2187;SDS011;1100;52.014;8.540;2024-03-22T04:05:00;11.13;;;4.57;;
2187;SDS011;1100;52.014;8.540;2024-03-22T04:07:25;10.30;;;4.60;;
2187;SDS011;1100;52.014;8.540;2024-03-22T04:09:51;10.73;;;4.13;;
2187;SDS011;1100;52.014;8.540;2024-03-22T04:12:16;11.63;;;5.10;;
2187;SDS011;1100;52.014;8.540;2024-03-22T04:14:42;15.20;;;5.10;;
2187;SDS011;1100;52.014;8.540;2024-03-22T04:17:07;10.63;;;4.57;;
2187;SDS011;1100;52.014;8.540;2024-03-22T04:19:32;11.00;;;4.60;;
2187;SDS011;1100;52.014;8.540;2024-03-22T04:21:57;8.40;;;4.30;;
2187;SDS011;1100;52.014;8.540;2024-03-22T04:24:23;15.63;;;7.00;;
2187;SDS011;1100;52.014;8.540;2024-03-22T04:26:48;11.57;;;4.40;;
2187;SDS011;1100;52.014;8.540;2024-03-22T04:29:13;12.47;;;5.37;;
2187;SDS011;1100;52.014;8.540;2024-03-22T04:31:38;11.67;;;5.40;;
2187;SDS011;1100;52.014;8.540;2024-03-22T04:34:04;10.07;;;4.07;;
2187;SDS011;1100;52.014;8.540;2024-03-22T04:36:32;15.73;;;6.47;;
2187;SDS011;1100;52.014;8.540;2024-03-22T04:38:57;15.60;;;4.00;;
2187;SDS011;1100;52.014;8.540;2024-03-22T04:41:23;9.37;;;4.50;;
2187;SDS011;1100;52.014;8.540;2024-03-22T04:43:48;11.77;;;5.00;;
2187;SDS011;1100;52.014;8.540;2024-03-22T04:46:13;9.53;;;3.80;;
2187;SDS011;1100;52.014;8.540;2024-03-22T04:48:39;10.97;;;4.57;;
2187;SDS011;1100;52.014;8.540;2024-03-22T04:51:04;9.47;;;4.27;;
2187;SDS011;1100;52.014;8.540;2024-03-22T04:53:29;10.33;;;4.10;;
2187;SDS011;1100;52.014;8.540;2024-03-22T04:55:55;12.70;;;4.00;;
2187;SDS011;1100;52.014;8.540;2024-03-22T04:58:21;11.67;;;4.90;;
2187;SDS011;1100;52.014;8.540;2024-03-22T05:00:55;10.03;;;4.37;;
2187;SDS011;1100;52.014;8.540;2024-03-22T05:03:21;12.48;;;5.15;;
2187;SDS011;1100;52.014;8.540;2024-03-22T05:05:47;8.73;;;3.00;;
2187;SDS011;1100;52.014;8.540;2024-03-22T05:08:12;10.80;;;4.17;;
2187;SDS011;1100;52.014;8.540;2024-03-22T05:10:37;11.17;;;5.07;;
2187;SDS011;1100;52.014;8.540;2024-03-22T05:13:03;7.50;;;3.57;;
2187;SDS011;1100;52.014;8.540;2024-03-22T05:15:28;9.00;;;4.45;;
2187;SDS011;1100;52.014;8.540;2024-03-22T05:17:57;12.30;;;4.53;;
2187;SDS011;1100;52.014;8.540;2024-03-22T05:20:28;8.18;;;3.88;;
2187;SDS011;1100;52.014;8.540;2024-03-22T05:22:56;13.35;;;4.00;;
2187;SDS011;1100;52.014;8.540;2024-03-22T05:25:21;11.27;;;4.37;;
2187;SDS011;1100;52.014;8.540;2024-03-22T05:27:46;10.67;;;3.70;;
2187;SDS011;1100;52.014;8.540;2024-03-22T05:30:12;12.20;;;5.27;;
2187;SDS011;1100;52.014;8.540;2024-03-22T05:32:38;11.07;;;3.63;;
2187;SDS011;1100;52.014;8.540;2024-03-22T05:35:05;8.10;;;3.88;;
2187;SDS011;1100;52.014;8.540;2024-03-22T05:37:30;9.80;;;4.07;;
2187;SDS011;1100;52.014;8.540;2024-03-22T05:39:56;11.13;;;5.07;;
2187;SDS011;1100;52.014;8.540;2024-03-22T05:42:21;13.57;;;4.57;;
2187;SDS011;1100;52.014;8.540;2024-03-22T05:44:47;13.90;;;4.73;;
2187;SDS011;1100;52.014;8.540;2024-03-22T05:47:13;12.13;;;4.88;;
2187;SDS011;1100;52.014;8.540;2024-03-22T05:49:38;12.07;;;5.13;;
2187;SDS011;1100;52.014;8.540;2024-03-22T05:52:03;12.67;;;4.83;;
2187;SDS011;1100;52.014;8.540;2024-03-22T05:54:29;12.17;;;4.43;;
2187;SDS011;1100;52.014;8.540;2024-03-22T05:56:55;10.00;;;4.57;;
2187;SDS011;1100;52.014;8.540;2024-03-22T05:59:20;16.83;;;4.20;;
2187;SDS011;1100;52.014;8.540;2024-03-22T06:01:46;10.73;;;4.57;;
2187;SDS011;1100;52.014;8.540;2024-03-22T06:04:11;10.80;;;4.13;;
2187;SDS011;1100;52.014;8.540;2024-03-22T06:06:36;11.60;;;4.67;;
2187;SDS011;1100;52.014;8.540;2024-03-22T06:09:03;7.47;;;4.13;;
2187;SDS011;1100;52.014;8.540;2024-03-22T06:11:32;10.85;;;4.40;;
2187;SDS011;1100;52.014;8.540;2024-03-22T06:13:57;20.17;;;5.00;;
2187;SDS011;1100;52.014;8.540;2024-03-22T06:16:22;9.90;;;3.87;;
2187;SDS011;1100;52.014;8.540;2024-03-22T06:18:48;10.33;;;4.40;;
2187;SDS011;1100;52.014;8.540;2024-03-22T06:21:13;12.57;;;4.17;;
2187;SDS011;1100;52.014;8.540;2024-03-22T06:23:39;11.70;;;4.85;;
2187;SDS011;1100;52.014;8.540;2024-03-22T06:26:05;9.40;;;4.80;;
2187;SDS011;1100;52.014;8.540;2024-03-22T06:28:30;11.53;;;4.17;;
2187;SDS011;1100;52.014;8.540;2024-03-22T06:30:55;10.47;;;4.47;;
2187;SDS011;1100;52.014;8.540;2024-03-22T06:33:20;10.40;;;4.17;;
2187;SDS011;1100;52.014;8.540;2024-03-22T06:35:46;9.90;;;4.68;;
2187;SDS011;1100;52.014;8.540;2024-03-22T06:38:12;9.40;;;5.03;;
2187;SDS011;1100;52.014;8.540;2024-03-22T06:40:37;10.13;;;4.80;;
2187;SDS011;1100;52.014;8.540;2024-03-22T06:43:03;11.40;;;4.00;;
2187;SDS011;1100;52.014;8.540;2024-03-22T06:45:28;13.20;;;4.53;;
2187;SDS011;1100;52.014;8.540;2024-03-22T06:47:54;10.02;;;3.88;;
2187;SDS011;1100;52.014;8.540;2024-03-22T06:50:19;8.07;;;3.23;;
2187;SDS011;1100;52.014;8.540;2024-03-22T06:52:49;10.00;;;4.18;;
2187;SDS011;1100;52.014;8.540;2024-03-22T06:55:16;10.40;;;4.28;;
2187;SDS011;1100;52.014;8.540;2024-03-22T06:57:42;12.00;;;3.90;;
2187;SDS011;1100;52.014;8.540;2024-03-22T07:00:07;10.33;;;3.70;;
2187;SDS011;1100;52.014;8.540;2024-03-22T07:02:35;10.95;;;4.32;;
2187;SDS011;1100;52.014;8.540;2024-03-22T07:05:00;11.17;;;5.00;;
2187;SDS011;1100;52.014;8.540;2024-03-22T07:07:25;11.30;;;4.27;;
2187;SDS011;1100;52.014;8.540;2024-03-22T07:09:51;10.07;;;4.47;;
2187;SDS011;1100;52.014;8.540;2024-03-22T07:12:16;8.53;;;4.10;;
2187;SDS011;1100;52.014;8.540;2024-03-22T07:14:41;6.87;;;3.17;;
2187;SDS011;1100;52.014;8.540;2024-03-22T07:17:07;14.00;;;4.30;;
2187;SDS011;1100;52.014;8.540;2024-03-22T07:19:32;10.68;;;4.20;;
2187;SDS011;1100;52.014;8.540;2024-03-22T07:21:59;9.88;;;3.60;;
2187;SDS011;1100;52.014;8.540;2024-03-22T07:24:25;8.27;;;3.67;;
2187;SDS011;1100;52.014;8.540;2024-03-22T07:26:50;11.07;;;3.40;;
2187;SDS011;1100;52.014;8.540;2024-03-22T07:29:16;10.40;;;4.43;;
2187;SDS011;1100;52.014;8.540;2024-03-22T07:31:41;11.30;;;4.67;;
2187;SDS011;1100;52.014;8.540;2024-03-22T07:34:07;13.73;;;4.15;;
2187;SDS011;1100;52.014;8.540;2024-03-22T07:36:36;9.33;;;3.27;;
2187;SDS011;1100;52.014;8.540;2024-03-22T07:39:02;8.38;;;2.70;;
2187;SDS011;1100;52.014;8.540;2024-03-22T07:41:28;8.37;;;4.27;;
2187;SDS011;1100;52.014;8.540;2024-03-22T07:43:54;8.45;;;3.47;;
2187;SDS011;1100;52.014;8.540;2024-03-22T07:46:19;10.20;;;4.80;;
2187;SDS011;1100;52.014;8.540;2024-03-22T07:48:44;7.47;;;3.60;;
2187;SDS011;1100;52.014;8.540;2024-03-22T07:51:09;8.27;;;3.23;;
2187;SDS011;1100;52.014;8.540;2024-03-22T07:53:35;10.07;;;3.90;;
2187;SDS011;1100;52.014;8.540;2024-03-22T07:56:00;8.07;;;3.17;;
2187;SDS011;1100;52.014;8.540;2024-03-22T07:58:25;8.30;;;3.67;;
2187;SDS011;1100;52.014;8.540;2024-03-22T08:00:51;7.10;;;3.30;;
2187;SDS011;1100;52.014;8.540;2024-03-22T08:03:16;8.83;;;2.77;;
2187;SDS011;1100;52.014;8.540;2024-03-22T08:05:42;9.37;;;3.33;;
2187;SDS011;1100;52.014;8.540;2024-03-22T08:08:07;7.60;;;3.30;;
2187;SDS011;1100;52.014;8.540;2024-03-22T08:10:33;8.10;;;3.50;;
2187;SDS011;1100;52.014;8.540;2024-03-22T08:12:59;8.48;;;3.00;;
2187;SDS011;1100;52.014;8.540;2024-03-22T08:15:25;5.87;;;2.90;;
2187;SDS011;1100;52.014;8.540;2024-03-22T08:17:51;6.32;;;2.95;;
2187;SDS011;1100;52.014;8.540;2024-03-22T08:20:16;7.30;;;2.53;;
2187;SDS011;1100;52.014;8.540;2024-03-22T08:22:41;9.13;;;3.40;;
2187;SDS011;1100;52.014;8.540;2024-03-22T08:25:07;8.10;;;3.43;;
2187;SDS011;1100;52.014;8.540;2024-03-22T08:27:32;5.87;;;2.33;;
2187;SDS011;1100;52.014;8.540;2024-03-22T08:29:59;12.20;;;3.60;;
2187;SDS011;1100;52.014;8.540;2024-03-22T08:32:24;8.18;;;3.47;;
2187;SDS011;1100;52.014;8.540;2024-03-22T08:34:50;9.80;;;3.80;;
2187;SDS011;1100;52.014;8.540;2024-03-22T08:37:15;13.37;;;2.97;;
2187;SDS011;1100;52.014;8.540;2024-03-22T08:39:40;10.00;;;3.33;;
2187;SDS011;1100;52.014;8.540;2024-03-22T08:42:06;7.50;;;3.57;;
2187;SDS011;1100;52.014;8.540;2024-03-22T08:44:31;6.67;;;2.93;;
2187;SDS011;1100;52.014;8.540;2024-03-22T08:46:56;7.97;;;3.38;;
2187;SDS011;1100;52.014;8.540;2024-03-22T08:49:23;7.80;;;2.83;;
2187;SDS011;1100;52.014;8.540;2024-03-22T08:51:48;8.23;;;3.28;;
2187;SDS011;1100;52.014;8.540;2024-03-22T08:54:14;7.37;;;3.40;;
2187;SDS011;1100;52.014;8.540;2024-03-22T08:56:39;10.70;;;3.60;;
2187;SDS011;1100;52.014;8.540;2024-03-22T08:59:05;8.98;;;3.03;;
2187;SDS011;1100;52.014;8.540;2024-03-22T09:01:30;6.50;;;3.00;;
2187;SDS011;1100;52.014;8.540;2024-03-22T09:03:56;8.60;;;2.83;;
2187;SDS011;1100;52.014;8.540;2024-03-22T09:06:21;8.30;;;3.03;;
2187;SDS011;1100;52.014;8.540;2024-03-22T09:08:46;9.32;;;3.05;;
2187;SDS011;1100;52.014;8.540;2024-03-22T09:11:12;8.17;;;3.27;;
2187;SDS011;1100;52.014;8.540;2024-03-22T09:13:37;7.97;;;2.90;;
2187;SDS011;1100;52.014;8.540;2024-03-22T09:16:03;6.57;;;3.07;;
2187;SDS011;1100;52.014;8.540;2024-03-22T09:18:28;7.60;;;2.63;;
2187;SDS011;1100;52.014;8.540;2024-03-22T09:20:54;8.00;;;2.63;;
2187;SDS011;1100;52.014;8.540;2024-03-22T09:23:19;6.47;;;3.03;;
2187;SDS011;1100;52.014;8.540;2024-03-22T09:25:48;7.60;;;3.33;;
2187;SDS011;1100;52.014;8.540;2024-03-22T09:28:13;10.03;;;3.13;;
2187;SDS011;1100;52.014;8.540;2024-03-22T09:30:39;8.30;;;3.13;;
2187;SDS011;1100;52.014;8.540;2024-03-22T09:33:05;10.02;;;3.42;;
2187;SDS011;1100;52.014;8.540;2024-03-22T09:35:32;7.93;;;3.50;;
2187;SDS011;1100;52.014;8.540;2024-03-22T09:37:58;8.38;;;3.50;;
2187;SDS011;1100;52.014;8.540;2024-03-22T09:40:24;8.63;;;3.13;;
2187;SDS011;1100;52.014;8.540;2024-03-22T09:42:49;7.07;;;3.22;;
2187;SDS011;1100;52.014;8.540;2024-03-22T09:45:17;8.05;;;3.33;;
2187;SDS011;1100;52.014;8.540;2024-03-22T09:47:45;5.97;;;2.30;;
2187;SDS011;1100;52.014;8.540;2024-03-22T09:50:10;6.65;;;3.13;;
2187;SDS011;1100;52.014;8.540;2024-03-22T09:52:37;9.80;;;2.90;;
2187;SDS011;1100;52.014;8.540;2024-03-22T09:55:04;7.47;;;2.93;;
2187;SDS011;1100;52.014;8.540;2024-03-22T09:57:34;7.45;;;2.92;;
2187;SDS011;1100;52.014;8.540;2024-03-22T10:00:02;6.22;;;2.50;;
2187;SDS011;1100;52.014;8.540;2024-03-22T10:02:28;9.80;;;3.15;;
2187;SDS011;1100;52.014;8.540;2024-03-22T10:04:56;7.63;;;2.60;;
2187;SDS011;1100;52.014;8.540;2024-03-22T10:07:21;7.78;;;3.97;;
2187;SDS011;1100;52.014;8.540;2024-03-22T10:09:47;5.75;;;2.42;;
2187;SDS011;1100;52.014;8.540;2024-03-22T10:12:12;7.40;;;3.07;;
2187;SDS011;1100;52.014;8.540;2024-03-22T10:14:38;7.43;;;3.57;;
2187;SDS011;1100;52.014;8.540;2024-03-22T10:17:05;7.13;;;2.63;;
2187;SDS011;1100;52.014;8.540;2024-03-22T10:19:30;8.53;;;2.63;;
2187;SDS011;1100;52.014;8.540;2024-03-22T10:21:59;6.80;;;2.40;;
2187;SDS011;1100;52.014;8.540;2024-03-22T10:24:25;7.70;;;2.70;;
2187;SDS011;1100;52.014;8.540;2024-03-22T10:26:51;7.97;;;2.70;;
2187;SDS011;1100;52.014;8.540;2024-03-22T10:29:16;7.37;;;2.40;;
2187;SDS011;1100;52.014;8.540;2024-03-22T10:31:41;7.03;;;2.63;;
2187;SDS011;1100;52.014;8.540;2024-03-22T10:34:07;8.35;;;3.40;;
2187;SDS011;1100;52.014;8.540;2024-03-22T10:36:34;7.15;;;3.00;;
2187;SDS011;1100;52.014;8.540;2024-03-22T10:38:59;5.77;;;2.30;;
2187;SDS011;1100;52.014;8.540;2024-03-22T10:41:28;7.65;;;3.00;;
2187;SDS011;1100;52.014;8.540;2024-03-22T10:43:54;9.07;;;2.70;;
2187;SDS011;1100;52.014;8.540;2024-03-22T10:46:20;7.90;;;2.90;;
2187;SDS011;1100;52.014;8.540;2024-03-22T10:48:45;9.00;;;3.10;;
2187;SDS011;1100;52.014;8.540;2024-03-22T10:51:11;8.03;;;3.70;;
2187;SDS011;1100;52.014;8.540;2024-03-22T10:53:38;6.88;;;2.90;;
2187;SDS011;1100;52.014;8.540;2024-03-22T10:56:04;8.63;;;3.47;;
2187;SDS011;1100;52.014;8.540;2024-03-22T10:58:31;7.43;;;2.63;;
2187;SDS011;1100;52.014;8.540;2024-03-22T11:00:57;8.82;;;3.13;;
2187;SDS011;1100;52.014;8.540;2024-03-22T11:03:24;8.60;;;3.43;;
2187;SDS011;1100;52.014;8.540;2024-03-22T11:05:50;7.90;;;2.92;;
2187;SDS011;1100;52.014;8.540;2024-03-22T11:08:29;9.10;;;2.78;;
2187;SDS011;1100;52.014;8.540;2024-03-22T11:10:58;7.22;;;2.40;;
2187;SDS011;1100;52.014;8.540;2024-03-22T11:13:35;7.03;;;2.77;;
2187;SDS011;1100;52.014;8.540;2024-03-22T11:16:01;7.38;;;3.15;;
2187;SDS011;1100;52.014;8.540;2024-03-22T11:18:27;7.75;;;3.00;;
2187;SDS011;1100;52.014;8.540;2024-03-22T11:20:53;7.10;;;2.53;;
2187;SDS011;1100;52.014;8.540;2024-03-22T11:23:18;8.52;;;2.80;;
2187;SDS011;1100;52.014;8.540;2024-03-22T11:25:45;7.63;;;2.90;;
2187;SDS011;1100;52.014;8.540;2024-03-22T11:28:11;5.70;;;2.67;;
2187;SDS011;1100;52.014;8.540;2024-03-22T11:30:37;6.35;;;2.80;;
2187;SDS011;1100;52.014;8.540;2024-03-22T11:33:03;7.93;;;2.97;;
2187;SDS011;1100;52.014;8.540;2024-03-22T11:35:30;7.33;;;2.60;;
2187;SDS011;1100;52.014;8.540;2024-03-22T11:37:56;6.57;;;2.72;;
2187;SDS011;1100;52.014;8.540;2024-03-22T11:40:23;7.13;;;3.03;;
2187;SDS011;1100;52.014;8.540;2024-03-22T11:42:50;6.07;;;2.42;;
2187;SDS011;1100;52.014;8.540;2024-03-22T11:45:17;8.50;;;2.72;;
2187;SDS011;1100;52.014;8.540;2024-03-22T11:47:44;9.37;;;3.10;;
2187;SDS011;1100;52.014;8.540;2024-03-22T11:50:14;9.07;;;3.20;;
2187;SDS011;1100;52.014;8.540;2024-03-22T11:52:43;7.68;;;2.90;;
2187;SDS011;1100;52.014;8.540;2024-03-22T11:55:12;8.48;;;3.70;;
2187;SDS011;1100;52.014;8.540;2024-03-22T11:57:38;8.70;;;3.58;;
2187;SDS011;1100;52.014;8.540;2024-03-22T12:00:03;6.27;;;2.77;;
2187;SDS011;1100;52.014;8.540;2024-03-22T12:02:34;9.55;;;3.60;;
2187;SDS011;1100;52.014;8.540;2024-03-22T12:05:01;6.53;;;2.97;;
2187;SDS011;1100;52.014;8.540;2024-03-22T12:07:27;7.03;;;3.28;;
2187;SDS011;1100;52.014;8.540;2024-03-22T12:09:53;7.85;;;3.33;;
2187;SDS011;1100;52.014;8.540;2024-03-22T12:12:18;5.77;;;2.83;;
2187;SDS011;1100;52.014;8.540;2024-03-22T12:14:46;8.38;;;3.60;;
2187;SDS011;1100;52.014;8.540;2024-03-22T12:17:11;9.03;;;3.87;;
2187;SDS011;1100;52.014;8.540;2024-03-22T12:19:37;10.23;;;3.83;;
2187;SDS011;1100;52.014;8.540;2024-03-22T12:22:02;8.73;;;3.17;;
2187;SDS011;1100;52.014;8.540;2024-03-22T12:24:27;7.63;;;3.53;;
2187;SDS011;1100;52.014;8.540;2024-03-22T12:26:53;8.70;;;3.40;;
2187;SDS011;1100;52.014;8.540;2024-03-22T12:29:19;7.77;;;3.93;;
2187;SDS011;1100;52.014;8.540;2024-03-22T12:31:45;7.40;;;3.47;;
2187;SDS011;1100;52.014;8.540;2024-03-22T12:34:11;8.67;;;3.47;;
2187;SDS011;1100;52.014;8.540;2024-03-22T12:36:37;9.20;;;3.70;;
2187;SDS011;1100;52.014;8.540;2024-03-22T12:39:02;6.97;;;4.37;;
2187;SDS011;1100;52.014;8.540;2024-03-22T12:41:28;7.55;;;4.18;;
2187;SDS011;1100;52.014;8.540;2024-03-22T12:43:56;9.10;;;4.87;;
2187;SDS011;1100;52.014;8.540;2024-03-22T12:46:22;8.13;;;3.15;;
2187;SDS011;1100;52.014;8.540;2024-03-22T12:48:47;7.83;;;3.43;;
2187;SDS011;1100;52.014;8.540;2024-03-22T12:51:13;9.87;;;3.37;;
2187;SDS011;1100;52.014;8.540;2024-03-22T12:53:38;7.72;;;4.10;;
2187;SDS011;1100;52.014;8.540;2024-03-22T12:56:04;10.60;;;3.93;;
2187;SDS011;1100;52.014;8.540;2024-03-22T12:58:30;7.17;;;3.60;;
2187;SDS011;1100;52.014;8.540;2024-03-22T13:00:56;7.63;;;3.75;;
2187;SDS011;1100;52.014;8.540;2024-03-22T13:03:22;8.75;;;3.85;;
2187;SDS011;1100;52.014;8.540;2024-03-22T13:05:47;9.07;;;4.03;;
2187;SDS011;1100;52.014;8.540;2024-03-22T13:08:12;8.43;;;3.80;;
2187;SDS011;1100;52.014;8.540;2024-03-22T13:10:38;7.13;;;3.38;;
2187;SDS011;1100;52.014;8.540;2024-03-22T13:13:08;8.57;;;3.75;;
2187;SDS011;1100;52.014;8.540;2024-03-22T13:15:33;6.23;;;3.47;;
2187;SDS011;1100;52.014;8.540;2024-03-22T13:18:00;8.50;;;3.90;;
2187;SDS011;1100;52.014;8.540;2024-03-22T13:20:25;9.20;;;3.70;;
2187;SDS011;1100;52.014;8.540;2024-03-22T13:22:51;8.57;;;3.50;;
2187;SDS011;1100;52.014;8.540;2024-03-22T13:25:16;10.70;;;4.35;;
2187;SDS011;1100;52.014;8.540;2024-03-22T13:27:41;9.80;;;3.80;;
2187;SDS011;1100;52.014;8.540;2024-03-22T13:30:07;8.53;;;4.13;;
2187;SDS011;1100;52.014;8.540;2024-03-22T13:32:37;11.80;;;4.03;;
2187;SDS011;1100;52.014;8.540;2024-03-22T13:35:02;8.80;;;3.80;;
2187;SDS011;1100;52.014;8.540;2024-03-22T13:37:28;9.93;;;4.60;;
2187;SDS011;1100;52.014;8.540;2024-03-22T13:39:54;11.37;;;4.33;;
2187;SDS011;1100;52.014;8.540;2024-03-22T13:42:19;9.60;;;4.93;;
2187;SDS011;1100;52.014;8.540;2024-03-22T13:44:44;7.40;;;3.53;;
2187;SDS011;1100;52.014;8.540;2024-03-22T13:47:10;9.40;;;4.73;;
2187;SDS011;1100;52.014;8.540;2024-03-22T13:49:35;8.65;;;4.07;;
2187;SDS011;1100;52.014;8.540;2024-03-22T13:52:01;7.80;;;4.33;;
2187;SDS011;1100;52.014;8.540;2024-03-22T13:54:26;7.57;;;4.00;;
2187;SDS011;1100;52.014;8.540;2024-03-22T13:56:51;8.37;;;4.23;;
2187;SDS011;1100;52.014;8.540;2024-03-22T13:59:16;11.20;;;5.20;;
2187;SDS011;1100;52.014;8.540;2024-03-22T14:01:42;9.43;;;4.00;;
2187;SDS011;1100;52.014;8.540;2024-03-22T14:04:10;8.20;;;3.83;;
2187;SDS011;1100;52.014;8.540;2024-03-22T14:06:36;11.43;;;3.78;;
2187;SDS011;1100;52.014;8.540;2024-03-22T14:09:02;8.25;;;3.65;;
2187;SDS011;1100;52.014;8.540;2024-03-22T14:11:29;9.27;;;4.40;;
2187;SDS011;1100;52.014;8.540;2024-03-22T14:13:56;8.52;;;4.32;;
2187;SDS011;1100;52.014;8.540;2024-03-22T14:16:24;9.32;;;4.60;;
2187;SDS011;1100;52.014;8.540;2024-03-22T14:18:50;6.63;;;3.33;;
2187;SDS011;1100;52.014;8.540;2024-03-22T14:21:19;10.30;;;3.97;;
2187;SDS011;1100;52.014;8.540;2024-03-22T14:23:48;7.90;;;3.65;;
2187;SDS011;1100;52.014;8.540;2024-03-22T14:26:16;10.27;;;3.83;;
2187;SDS011;1100;52.014;8.540;2024-03-22T14:28:42;9.80;;;3.67;;
2187;SDS011;1100;52.014;8.540;2024-03-22T14:31:08;14.40;;;3.93;;
2187;SDS011;1100;52.014;8.540;2024-03-22T14:33:35;7.70;;;3.88;;
2187;SDS011;1100;52.014;8.540;2024-03-22T14:36:01;10.43;;;4.50;;
2187;SDS011;1100;52.014;8.540;2024-03-22T14:38:27;6.78;;;3.47;;
2187;SDS011;1100;52.014;8.540;2024-03-22T14:40:53;8.20;;;3.70;;
2187;SDS011;1100;52.014;8.540;2024-03-22T14:43:20;9.70;;;4.03;;
2187;SDS011;1100;52.014;8.540;2024-03-22T14:45:45;10.03;;;4.70;;
2187;SDS011;1100;52.014;8.540;2024-03-22T14:48:11;7.57;;;3.47;;
2187;SDS011;1100;52.014;8.540;2024-03-22T14:50:36;7.83;;;3.73;;
2187;SDS011;1100;52.014;8.540;2024-03-22T14:53:03;9.60;;;3.97;;
2187;SDS011;1100;52.014;8.540;2024-03-22T14:55:29;11.40;;;5.10;;
2187;SDS011;1100;52.014;8.540;2024-03-22T14:57:54;8.40;;;3.43;;
2187;SDS011;1100;52.014;8.540;2024-03-22T15:00:20;8.00;;;3.70;;